Lynn, Michigan
Current Conditions -  °F | °C
As of 5:18 AM on Thursday 18 Dec 2014 (Local Time) from KPHN Reporting Station
Overcast Overcast  
Wind Chill: 23°   Ceiling: 1200
Heat Index: 28°   Visibility: 10mi
Dew Point: 27°   Wind: 5mph
Humidity: 93%   Direction: 270°W
Pressure: 30.16"   Gusts: NA
Location:  43.127°N, 82.8328°W
Report Text: KPHN 181018Z AUTO 27004KT 10SM OVC012 M02/M03 A3016 RMK AO2
Loading
Personal Weather Stations






























Interactive Weather Map New forecast layout! Learn more

10-Day Weather Forecast

Advertisements
Track Severe Weather on mobile